createdAt,value
2016-12-01T00:00:58.359Z,1020.12
2016-12-01T00:01:58.340Z,1020.15
2016-12-01T00:02:58.321Z,1020.11
2016-12-01T00:03:58.300Z,1020.11
2016-12-01T00:04:58.281Z,1020.12
2016-12-01T00:05:58.266Z,1020.04
2016-12-01T00:06:58.245Z,1020.05
2016-12-01T00:07:58.219Z,1020.07
2016-12-01T00:08:58.201Z,1020.05
2016-12-01T00:09:58.181Z,1020.06
2016-12-01T00:10:58.162Z,1020.05
2016-12-01T00:11:58.142Z,1020.04
2016-12-01T00:12:58.122Z,1019.99
2016-12-01T00:13:58.153Z,1020.01
2016-12-01T00:14:58.082Z,1020.02
2016-12-01T00:15:58.064Z,1019.97
2016-12-01T00:16:58.045Z,1019.98
2016-12-01T00:17:58.022Z,1019.93
2016-12-01T00:18:58.000Z,1019.93
2016-12-01T00:19:57.981Z,1019.97
2016-12-01T00:20:57.962Z,1019.93
2016-12-01T00:21:57.945Z,1019.92
2016-12-01T00:22:57.921Z,1019.91
2016-12-01T00:23:57.902Z,1019.94
2016-12-01T00:24:57.885Z,1019.95
2016-12-01T00:25:57.867Z,1019.96
2016-12-01T00:26:57.845Z,1019.94
2016-12-01T00:27:57.822Z,1019.93
2016-12-01T00:28:57.803Z,1019.97
2016-12-01T00:29:57.782Z,1019.96
2016-12-01T00:30:57.765Z,1019.93
2016-12-01T00:31:57.743Z,1019.93
2016-12-01T00:32:57.723Z,1019.93
2016-12-01T00:33:57.702Z,1019.9
2016-12-01T00:34:57.684Z,1019.94
2016-12-01T00:35:57.664Z,1019.9
2016-12-01T00:36:57.646Z,1019.95
2016-12-01T00:37:57.623Z,1019.86
2016-12-01T00:38:57.603Z,1019.92
2016-12-01T00:39:57.583Z,1019.91
2016-12-01T00:40:57.567Z,1019.88
2016-12-01T00:41:57.545Z,1019.85
2016-12-01T00:42:57.524Z,1019.89
2016-12-01T00:43:57.505Z,1019.93
2016-12-01T00:44:57.486Z,1019.93
2016-12-01T00:45:57.465Z,1019.96
2016-12-01T00:46:57.446Z,1019.94
2016-12-01T00:47:57.428Z,1019.92
2016-12-01T00:48:57.404Z,1019.93
2016-12-01T00:49:57.384Z,1019.93
2016-12-01T00:50:57.364Z,1019.89
2016-12-01T00:51:57.345Z,1019.91
2016-12-01T00:52:57.326Z,1019.94
2016-12-01T00:53:57.306Z,1019.89
2016-12-01T00:54:57.285Z,1019.88
2016-12-01T00:55:57.266Z,1019.86
2016-12-01T00:56:57.246Z,1019.89
2016-12-01T00:57:57.226Z,1019.88
2016-12-01T00:58:57.206Z,1019.95
2016-12-01T00:59:57.191Z,1019.89
2016-12-01T01:00:57.169Z,1019.89
2016-12-01T01:01:57.148Z,1019.91
2016-12-01T01:02:57.129Z,1019.95
2016-12-01T01:03:57.109Z,1019.91
2016-12-01T01:04:57.088Z,1019.88
2016-12-01T01:05:57.073Z,1019.8
2016-12-01T01:06:57.050Z,1019.74
2016-12-01T01:07:57.028Z,1019.77
2016-12-01T01:08:57.012Z,1019.76
2016-12-01T01:09:56.987Z,1019.75
2016-12-01T01:10:56.969Z,1019.73
2016-12-01T01:11:56.949Z,1019.74
2016-12-01T01:12:56.931Z,1019.76
2016-12-01T01:13:56.909Z,1019.77
2016-12-01T01:14:56.890Z,1019.68
2016-12-01T01:15:56.869Z,1019.71
2016-12-01T01:16:56.850Z,1019.76
2016-12-01T01:17:56.830Z,1019.76
2016-12-01T01:18:56.813Z,1019.71
2016-12-01T01:19:56.791Z,1019.67
2016-12-01T01:20:56.774Z,1019.64
2016-12-01T01:21:56.750Z,1019.65
2016-12-01T01:22:56.730Z,1019.65
2016-12-01T01:23:56.712Z,1019.62
2016-12-01T01:24:56.691Z,1019.61
2016-12-01T01:25:56.670Z,1019.59
2016-12-01T01:26:56.651Z,1019.61
2016-12-01T01:27:56.630Z,1019.71
2016-12-01T01:28:56.613Z,1019.72
2016-12-01T01:29:56.590Z,1019.68
2016-12-01T01:30:56.570Z,1019.63
2016-12-01T01:31:56.550Z,1019.63
2016-12-01T01:32:56.535Z,1019.62
2016-12-01T01:33:56.510Z,1019.58
2016-12-01T01:34:56.492Z,1019.59
2016-12-01T01:35:56.470Z,1019.61
2016-12-01T01:36:56.451Z,1019.66
2016-12-01T01:37:56.432Z,1019.58
2016-12-01T01:38:56.412Z,1019.58
2016-12-01T01:39:56.391Z,1019.62
2016-12-01T01:40:56.373Z,1019.57
2016-12-01T01:41:56.353Z,1019.52
2016-12-01T01:42:56.332Z,1019.51
2016-12-01T01:43:56.312Z,1019.56
2016-12-01T01:44:56.294Z,1019.47
2016-12-01T01:45:56.275Z,1019.49
2016-12-01T01:46:56.253Z,1019.45
2016-12-01T01:47:56.233Z,1019.46
2016-12-01T01:48:56.213Z,1019.49
2016-12-01T01:49:56.194Z,1019.54
2016-12-01T01:50:56.172Z,1019.54
2016-12-01T01:51:56.153Z,1019.5
2016-12-01T01:52:56.134Z,1019.57
2016-12-01T01:53:56.112Z,1019.49
2016-12-01T01:54:56.092Z,1019.54
2016-12-01T01:55:56.074Z,1019.53
2016-12-01T01:56:56.054Z,1019.54
2016-12-01T01:57:56.236Z,1019.52
2016-12-01T01:58:56.023Z,1019.54
2016-12-01T01:59:55.995Z,1019.51
2016-12-01T02:00:55.976Z,1019.5
2016-12-01T02:01:55.954Z,1019.57
2016-12-01T02:02:55.934Z,1019.54
2016-12-01T02:03:55.914Z,1019.56
2016-12-01T02:04:55.895Z,1019.55
2016-12-01T02:05:55.874Z,1019.52
2016-12-01T02:06:55.854Z,1019.57
2016-12-01T02:07:55.836Z,1019.53
2016-12-01T02:08:55.816Z,1019.49
2016-12-01T02:09:55.794Z,1019.51
2016-12-01T02:10:55.775Z,1019.49
2016-12-01T02:11:55.755Z,1019.48
2016-12-01T02:12:55.734Z,1019.42
2016-12-01T02:13:55.715Z,1019.41
2016-12-01T02:14:55.697Z,1019.39
2016-12-01T02:15:55.674Z,1019.35
2016-12-01T02:16:55.655Z,1019.39
2016-12-01T02:17:55.640Z,1019.43
2016-12-01T02:18:55.618Z,1019.38
2016-12-01T02:19:55.597Z,1019.33
2016-12-01T02:20:55.578Z,1019.38
2016-12-01T02:21:55.556Z,1019.36
2016-12-01T02:22:55.537Z,1019.34
2016-12-01T02:23:55.517Z,1019.31
2016-12-01T02:24:55.496Z,1019.26
2016-12-01T02:25:55.479Z,1019.18
2016-12-01T02:26:55.457Z,1019.19
2016-12-01T02:27:55.436Z,1019.17
2016-12-01T02:28:55.418Z,1019.19
2016-12-01T02:29:55.402Z,1019.18
2016-12-01T02:30:55.378Z,1019.18
2016-12-01T02:31:55.358Z,1019.19
2016-12-01T02:32:55.338Z,1019.18
2016-12-01T02:33:55.321Z,1019.21
2016-12-01T02:34:55.302Z,1019.25
2016-12-01T02:35:55.280Z,1019.21
2016-12-01T02:36:55.260Z,1019.18
2016-12-01T02:37:55.240Z,1019.18
2016-12-01T02:38:55.220Z,1019.22
2016-12-01T02:39:55.200Z,1019.18
2016-12-01T02:40:55.181Z,1019.16
2016-12-01T02:41:55.161Z,1019.16
2016-12-01T02:42:55.144Z,1019.15
2016-12-01T02:43:55.124Z,1019.16
2016-12-01T02:44:55.102Z,1019.18
2016-12-01T02:45:55.082Z,1019.18
2016-12-01T02:46:55.062Z,1019.18
2016-12-01T02:47:55.043Z,1019.14
2016-12-01T02:48:55.022Z,1019.09
2016-12-01T02:49:55.003Z,1019.12
2016-12-01T02:50:54.984Z,1019.1
2016-12-01T02:51:54.963Z,1019.07
2016-12-01T02:52:54.944Z,1019.09
2016-12-01T02:53:54.925Z,1019.07
2016-12-01T02:54:54.904Z,1019.11
2016-12-01T02:55:54.885Z,1019.13
2016-12-01T02:56:54.867Z,1019.14
2016-12-01T02:57:54.847Z,1019.13
2016-12-01T02:58:54.827Z,1019.18
2016-12-01T02:59:54.806Z,1019.14
2016-12-01T03:00:54.788Z,1019.09
2016-12-01T03:01:54.768Z,1019.07
2016-12-01T03:02:54.748Z,1019.09
2016-12-01T03:03:54.728Z,1019.09
2016-12-01T03:04:54.709Z,1019.05
2016-12-01T03:05:54.690Z,1019.05
2016-12-01T03:06:54.669Z,1019.04
2016-12-01T03:07:54.650Z,1019.04
2016-12-01T03:08:54.631Z,1018.99
2016-12-01T03:09:54.611Z,1018.99
2016-12-01T03:10:54.590Z,1018.97
2016-12-01T03:11:54.571Z,1018.98
2016-12-01T03:12:54.552Z,1018.95
2016-12-01T03:13:54.532Z,1018.93
2016-12-01T03:14:54.510Z,1018.95
2016-12-01T03:15:54.492Z,1018.93
2016-12-01T03:16:54.471Z,1018.91
2016-12-01T03:17:54.452Z,1018.95
2016-12-01T03:18:54.433Z,1018.92
2016-12-01T03:19:54.415Z,1018.88
2016-12-01T03:20:54.395Z,1018.88
2016-12-01T03:21:54.375Z,1018.9
2016-12-01T03:22:54.355Z,1018.89
2016-12-01T03:23:54.334Z,1018.92
2016-12-01T03:24:54.313Z,1018.92
2016-12-01T03:25:54.295Z,1018.95
2016-12-01T03:26:54.275Z,1018.94
2016-12-01T03:27:54.257Z,1018.97
2016-12-01T03:28:54.234Z,1018.97
2016-12-01T03:29:54.214Z,1018.99
2016-12-01T03:30:54.195Z,1018.96
2016-12-01T03:31:54.177Z,1019.01
2016-12-01T03:32:54.157Z,1018.99
2016-12-01T03:33:54.135Z,1018.94
2016-12-01T03:34:54.116Z,1018.91
2016-12-01T03:35:54.106Z,1018.89
2016-12-01T03:36:54.078Z,1018.84
2016-12-01T03:37:54.061Z,1018.87
2016-12-01T03:38:54.037Z,1018.8
2016-12-01T03:39:54.017Z,1018.82
2016-12-01T03:40:53.998Z,1018.84
2016-12-01T03:41:53.977Z,1018.83
2016-12-01T03:42:53.957Z,1018.82
2016-12-01T03:43:53.936Z,1018.78
2016-12-01T03:44:53.918Z,1018.84
2016-12-01T03:45:53.932Z,1018.87
2016-12-01T03:46:53.878Z,1018.75
2016-12-01T03:47:53.856Z,1018.74
2016-12-01T03:48:53.837Z,1018.7
2016-12-01T03:49:53.817Z,1018.71
2016-12-01T03:50:53.796Z,1018.72
2016-12-01T03:51:53.776Z,1018.73
2016-12-01T03:52:53.758Z,1018.67
2016-12-01T03:53:53.737Z,1018.65
2016-12-01T03:54:53.717Z,1018.64
2016-12-01T03:55:53.696Z,1018.66
2016-12-01T03:56:53.676Z,1018.62
2016-12-01T03:57:53.862Z,1018.53
2016-12-01T03:58:53.641Z,1018.49
2016-12-01T03:59:53.617Z,1018.5
2016-12-01T04:00:53.601Z,1018.52
2016-12-01T04:01:53.588Z,1018.52
2016-12-01T04:02:53.560Z,1018.52
2016-12-01T04:03:53.536Z,1018.59
2016-12-01T04:04:53.535Z,1018.56
2016-12-01T04:05:53.497Z,1018.54
2016-12-01T04:06:53.476Z,1018.5
2016-12-01T04:07:53.460Z,1018.47
2016-12-01T04:08:53.437Z,1018.5
2016-12-01T04:09:53.419Z,1018.52
2016-12-01T04:10:53.398Z,1018.46
2016-12-01T04:11:53.377Z,1018.43
2016-12-01T04:12:53.357Z,1018.43
2016-12-01T04:13:53.340Z,1018.43
2016-12-01T04:14:53.318Z,1018.45
2016-12-01T04:15:53.299Z,1018.47
2016-12-01T04:16:53.278Z,1018.46
2016-12-01T04:17:53.258Z,1018.51
2016-12-01T04:18:53.236Z,1018.45
2016-12-01T04:19:53.221Z,1018.46
2016-12-01T04:20:53.197Z,1018.56
2016-12-01T04:21:53.179Z,1018.43
2016-12-01T04:22:53.158Z,1018.39
2016-12-01T04:23:53.139Z,1018.35
2016-12-01T04:24:53.116Z,1018.39
2016-12-01T04:25:53.100Z,1018.34
2016-12-01T04:26:53.077Z,1018.38
2016-12-01T04:27:53.060Z,1018.38
2016-12-01T04:28:53.043Z,1018.35
2016-12-01T04:29:53.018Z,1018.35
2016-12-01T04:30:52.998Z,1018.37
2016-12-01T04:31:52.978Z,1018.38
2016-12-01T04:32:52.959Z,1018.38
2016-12-01T04:33:52.938Z,1018.34
2016-12-01T04:34:52.917Z,1018.34
2016-12-01T04:35:52.900Z,1018.36
2016-12-01T04:36:52.878Z,1018.35
2016-12-01T04:37:52.861Z,1018.34
2016-12-01T04:38:52.840Z,1018.26
2016-12-01T04:39:52.820Z,1018.3
2016-12-01T04:40:52.799Z,1018.28
2016-12-01T04:41:52.779Z,1018.32
2016-12-01T04:42:52.759Z,1018.25
2016-12-01T04:43:52.741Z,1018.23
2016-12-01T04:44:52.719Z,1018.2
2016-12-01T04:45:52.701Z,1018.26
2016-12-01T04:46:52.680Z,1018.21
2016-12-01T04:47:52.659Z,1018.27
2016-12-01T04:48:52.640Z,1018.27
2016-12-01T04:49:52.618Z,1018.27
2016-12-01T04:50:52.598Z,1018.28
2016-12-01T04:51:52.580Z,1018.28
2016-12-01T04:52:52.558Z,1018.29
2016-12-01T04:53:52.540Z,1018.26
2016-12-01T04:54:52.520Z,1018.34
2016-12-01T04:55:52.501Z,1018.32
2016-12-01T04:56:52.481Z,1018.37
2016-12-01T04:57:52.462Z,1018.34
2016-12-01T04:58:52.439Z,1018.29
2016-12-01T04:59:52.441Z,1018.33
2016-12-01T05:00:52.401Z,1018.33
2016-12-01T05:01:52.381Z,1018.31
2016-12-01T05:02:52.363Z,1018.27
2016-12-01T05:03:52.344Z,1018.19
2016-12-01T05:04:52.322Z,1018.18
2016-12-01T05:05:52.302Z,1018.22
2016-12-01T05:06:52.282Z,1018.22
2016-12-01T05:07:52.261Z,1018.26
2016-12-01T05:08:52.253Z,1018.26
2016-12-01T05:09:52.223Z,1018.27
2016-12-01T05:10:52.203Z,1018.23
2016-12-01T05:11:52.185Z,1018.22
2016-12-01T05:12:52.163Z,1018.22
2016-12-01T05:13:52.144Z,1018.27
2016-12-01T05:14:52.124Z,1018.25
2016-12-01T05:15:52.104Z,1018.25
2016-12-01T05:16:52.085Z,1018.26
2016-12-01T05:17:52.067Z,1018.23
2016-12-01T05:18:52.044Z,1018.27
2016-12-01T05:19:52.028Z,1018.23
2016-12-01T05:20:52.005Z,1018.17
2016-12-01T05:21:51.987Z,1018.2
2016-12-01T05:22:51.965Z,1018.17
2016-12-01T05:23:51.946Z,1018.1
2016-12-01T05:24:51.925Z,1018.08
2016-12-01T05:25:51.908Z,1018.08
2016-12-01T05:26:51.886Z,1018.05
2016-12-01T05:27:51.869Z,1018.07
2016-12-01T05:28:51.847Z,1018.08
2016-12-01T05:29:51.828Z,1018.08
2016-12-01T05:30:51.810Z,1018.09
2016-12-01T05:31:51.789Z,1018.08
2016-12-01T05:32:51.769Z,1018.01
2016-12-01T05:33:51.749Z,1017.99
2016-12-01T05:34:51.728Z,1017.94
2016-12-01T05:35:51.710Z,1017.96
2016-12-01T05:36:51.691Z,1018
2016-12-01T05:37:51.671Z,1018.02
2016-12-01T05:38:51.652Z,1018.06
2016-12-01T05:39:51.632Z,1018.11
2016-12-01T05:40:51.611Z,1018.17
2016-12-01T05:41:51.593Z,1018.12
2016-12-01T05:42:51.573Z,1018.14
2016-12-01T05:43:51.553Z,1018.15
2016-12-01T05:44:51.589Z,1018.14
2016-12-01T05:45:51.515Z,1018.16
2016-12-01T05:46:51.511Z,1018.22
2016-12-01T05:47:51.728Z,1018.19
2016-12-01T05:48:51.475Z,1018.2
2016-12-01T05:49:51.437Z,1018.19
2016-12-01T05:50:51.416Z,1018.19
2016-12-01T05:51:51.400Z,1018.18
2016-12-01T05:52:51.375Z,1018.21
2016-12-01T05:53:51.356Z,1018.2
2016-12-01T05:54:51.336Z,1018.21
2016-12-01T05:55:51.325Z,1018.26
2016-12-01T05:56:51.296Z,1018.26
2016-12-01T05:57:51.480Z,1018.26
2016-12-01T05:58:51.256Z,1018.26
2016-12-01T05:59:51.237Z,1018.26
2016-12-01T06:00:51.267Z,1018.26
2016-12-01T06:01:51.199Z,1018.23
2016-12-01T06:02:51.179Z,1018.2
2016-12-01T06:03:51.158Z,1018.26
2016-12-01T06:04:51.142Z,1018.24
2016-12-01T06:05:51.119Z,1018.23
2016-12-01T06:06:51.100Z,1018.25
2016-12-01T06:07:51.079Z,1018.21
2016-12-01T06:08:51.803Z,1018.22
2016-12-01T06:09:51.048Z,1018.17
2016-12-01T06:10:51.024Z,1018.15
2016-12-01T06:11:51.007Z,1018.16
2016-12-01T06:12:50.985Z,1018.11
2016-12-01T06:13:50.963Z,1018.08
2016-12-01T06:14:50.945Z,1018.03
2016-12-01T06:15:50.922Z,1017.99
2016-12-01T06:16:50.903Z,1018.02
2016-12-01T06:17:50.891Z,1018.07
2016-12-01T06:18:50.864Z,1018.06
2016-12-01T06:19:50.844Z,1018.07
2016-12-01T06:20:50.827Z,1018.12
2016-12-01T06:21:50.827Z,1018.06
2016-12-01T06:22:50.793Z,1018.03
2016-12-01T06:23:50.770Z,1018.02
2016-12-01T06:24:50.748Z,1018
2016-12-01T06:25:50.732Z,1017.95
2016-12-01T06:26:50.706Z,1017.95
2016-12-01T06:27:50.686Z,1017.95
2016-12-01T06:28:50.666Z,1017.91
2016-12-01T06:29:50.647Z,1017.96
2016-12-01T06:30:50.628Z,1018.01
2016-12-01T06:31:50.609Z,1018.01
2016-12-01T06:32:50.587Z,1017.95
2016-12-01T06:33:50.568Z,1017.99
2016-12-01T06:34:50.549Z,1018
2016-12-01T06:35:50.527Z,1017.96
2016-12-01T06:36:50.508Z,1018
2016-12-01T06:37:50.489Z,1018
2016-12-01T06:38:50.470Z,1018
2016-12-01T06:39:50.450Z,1017.97
2016-12-01T06:40:50.430Z,1017.96
2016-12-01T06:41:50.412Z,1017.96
2016-12-01T06:42:50.392Z,1017.93
2016-12-01T06:43:50.372Z,1017.84
2016-12-01T06:44:50.351Z,1017.86
2016-12-01T06:45:50.333Z,1017.84
2016-12-01T06:46:50.312Z,1017.86
2016-12-01T06:47:50.342Z,1017.77
2016-12-01T06:48:50.275Z,1017.81
2016-12-01T06:49:50.253Z,1017.82
2016-12-01T06:50:50.234Z,1017.8
2016-12-01T06:51:50.217Z,1017.84
2016-12-01T06:52:50.200Z,1017.81
2016-12-01T06:53:50.224Z,1017.84
2016-12-01T06:54:50.157Z,1017.81
2016-12-01T06:55:50.136Z,1017.82
2016-12-01T06:56:50.238Z,1017.83
2016-12-01T06:57:50.098Z,1017.85
2016-12-01T06:58:50.087Z,1017.84
2016-12-01T06:59:50.059Z,1017.83
2016-12-01T07:00:50.036Z,1017.83
2016-12-01T07:01:50.022Z,1017.84
2016-12-01T07:02:49.997Z,1017.84
2016-12-01T07:03:49.977Z,1017.84
2016-12-01T07:04:49.957Z,1017.87
2016-12-01T07:05:49.938Z,1017.79
2016-12-01T07:06:49.920Z,1017.78
2016-12-01T07:07:49.900Z,1017.79
2016-12-01T07:08:49.878Z,1017.88
2016-12-01T07:09:49.861Z,1017.83
2016-12-01T07:10:49.842Z,1017.85
2016-12-01T07:11:49.820Z,1017.83
2016-12-01T07:12:49.800Z,1017.83
2016-12-01T07:13:49.781Z,1017.82
2016-12-01T07:14:49.761Z,1017.89
2016-12-01T07:15:49.743Z,1017.9
2016-12-01T07:16:49.721Z,1017.89
2016-12-01T07:17:49.703Z,1017.87
2016-12-01T07:18:49.684Z,1017.84
2016-12-01T07:19:49.663Z,1017.85
2016-12-01T07:20:49.644Z,1017.88
2016-12-01T07:21:49.625Z,1017.82
2016-12-01T07:22:49.604Z,1017.85
2016-12-01T07:23:49.585Z,1017.85
2016-12-01T07:24:49.569Z,1017.86
2016-12-01T07:25:49.549Z,1017.9
2016-12-01T07:26:49.525Z,1017.87
2016-12-01T07:27:49.507Z,1017.86
2016-12-01T07:28:49.487Z,1017.87
2016-12-01T07:29:49.470Z,1017.82
2016-12-01T07:30:49.448Z,1017.82
2016-12-01T07:31:49.429Z,1017.81
2016-12-01T07:32:49.408Z,1017.89
2016-12-01T07:33:49.389Z,1017.88
2016-12-01T07:34:49.369Z,1017.93
2016-12-01T07:35:49.350Z,1017.9
2016-12-01T07:36:49.332Z,1017.85
2016-12-01T07:37:49.310Z,1017.84
2016-12-01T07:38:49.296Z,1017.82
2016-12-01T07:39:49.270Z,1017.87
2016-12-01T07:40:49.250Z,1017.8
2016-12-01T07:41:49.232Z,1017.78
2016-12-01T07:42:49.214Z,1017.78
2016-12-01T07:43:49.191Z,1017.86
2016-12-01T07:44:49.171Z,1017.86
2016-12-01T07:45:49.153Z,1017.88
2016-12-01T07:46:49.133Z,1017.92
2016-12-01T07:47:49.114Z,1017.89
2016-12-01T07:48:49.092Z,1017.92
2016-12-01T07:49:49.074Z,1017.88
2016-12-01T07:50:49.054Z,1017.94
2016-12-01T07:51:49.033Z,1017.88
2016-12-01T07:52:49.012Z,1017.89
2016-12-01T07:53:48.995Z,1017.91
2016-12-01T07:54:48.976Z,1017.92
2016-12-01T07:55:48.954Z,1017.96
2016-12-01T07:56:48.935Z,1017.93
2016-12-01T07:57:49.123Z,1017.88
2016-12-01T07:58:48.898Z,1017.89
2016-12-01T07:59:48.875Z,1017.9
2016-12-01T08:00:48.855Z,1017.84
2016-12-01T08:01:48.835Z,1017.91
2016-12-01T08:02:48.817Z,1017.84
2016-12-01T08:03:48.800Z,1017.93
2016-12-01T08:04:48.776Z,1017.92
2016-12-01T08:05:48.756Z,1017.87
2016-12-01T08:06:48.740Z,1017.92
2016-12-01T08:07:48.719Z,1017.98
2016-12-01T08:08:48.700Z,1017.92
2016-12-01T08:09:48.679Z,1017.92
2016-12-01T08:10:48.658Z,1017.92
2016-12-01T08:11:48.638Z,1017.86
2016-12-01T08:12:48.619Z,1017.88
2016-12-01T08:13:48.598Z,1017.86
2016-12-01T08:14:48.579Z,1017.82
2016-12-01T08:15:48.560Z,1017.8
2016-12-01T08:16:48.541Z,1017.71
2016-12-01T08:17:48.521Z,1017.71
2016-12-01T08:18:48.499Z,1017.69
2016-12-01T08:19:48.481Z,1017.71
2016-12-01T08:20:48.462Z,1017.68
2016-12-01T08:21:48.440Z,1017.61
2016-12-01T08:22:48.422Z,1017.6
2016-12-01T08:23:48.401Z,1017.58
2016-12-01T08:24:48.388Z,1017.59
2016-12-01T08:25:48.364Z,1017.58
2016-12-01T08:26:48.344Z,1017.54
2016-12-01T08:27:48.324Z,1017.56
2016-12-01T08:28:48.304Z,1017.63
2016-12-01T08:29:48.286Z,1017.62
2016-12-01T08:30:48.265Z,1017.6
2016-12-01T08:31:48.246Z,1017.58
2016-12-01T08:32:48.225Z,1017.55
2016-12-01T08:33:48.206Z,1017.61
2016-12-01T08:34:48.187Z,1017.61
2016-12-01T08:35:48.216Z,1017.61
2016-12-01T08:36:48.147Z,1017.59
2016-12-01T08:37:48.178Z,1017.59
2016-12-01T08:38:48.108Z,1017.57
2016-12-01T08:39:48.088Z,1017.51
2016-12-01T08:40:48.119Z,1017.51
2016-12-01T08:41:48.050Z,1017.47
2016-12-01T08:42:48.030Z,1017.44
2016-12-01T08:43:48.029Z,1017.46
2016-12-01T08:44:47.990Z,1017.43
2016-12-01T08:45:47.971Z,1017.47
2016-12-01T08:46:47.950Z,1017.4
2016-12-01T08:47:47.932Z,1017.4
2016-12-01T08:48:47.911Z,1017.45
2016-12-01T08:49:47.893Z,1017.43
2016-12-01T08:50:47.923Z,1017.43
2016-12-01T08:51:47.853Z,1017.47
2016-12-01T08:52:47.834Z,1017.48
2016-12-01T08:53:47.816Z,1017.47
2016-12-01T08:54:47.797Z,1017.41
2016-12-01T08:55:47.776Z,1017.4
2016-12-01T08:56:47.758Z,1017.38
2016-12-01T08:57:47.738Z,1017.39
2016-12-01T08:58:47.719Z,1017.31
2016-12-01T08:59:47.700Z,1017.3
2016-12-01T09:00:47.681Z,1017.25
2016-12-01T09:01:47.662Z,1017.23
2016-12-01T09:02:47.641Z,1017.16
2016-12-01T09:03:47.623Z,1017.15
2016-12-01T09:04:47.603Z,1017.16
2016-12-01T09:05:47.583Z,1017.15
2016-12-01T09:06:47.565Z,1017.11
2016-12-01T09:07:47.546Z,1017.2
2016-12-01T09:08:47.527Z,1017.12
2016-12-01T09:09:47.507Z,1017.18
2016-12-01T09:10:47.487Z,1017.11
2016-12-01T09:11:47.470Z,1017.05
2016-12-01T09:12:47.449Z,1017.06
2016-12-01T09:13:47.432Z,1017.12
2016-12-01T09:14:47.411Z,1017.09
2016-12-01T09:15:47.392Z,1017.15
2016-12-01T09:16:47.374Z,1017.11
2016-12-01T09:17:47.353Z,1017.16
2016-12-01T09:18:47.337Z,1017.22
2016-12-01T09:19:47.317Z,1017.32
2016-12-01T09:20:47.299Z,1017.27
2016-12-01T09:21:47.278Z,1017.37
2016-12-01T09:22:47.262Z,1017.31
2016-12-01T09:23:47.241Z,1017.38
2016-12-01T09:24:47.221Z,1017.32
2016-12-01T09:25:47.203Z,1017.29
2016-12-01T09:26:47.182Z,1017.32
2016-12-01T09:27:47.162Z,1017.41
2016-12-01T09:28:47.147Z,1017.31
2016-12-01T09:29:47.127Z,1017.38
2016-12-01T09:30:47.107Z,1017.3
2016-12-01T09:31:47.087Z,1017.29
2016-12-01T09:32:47.069Z,1017.23
2016-12-01T09:33:47.051Z,1017.31
2016-12-01T09:34:47.031Z,1017.32
2016-12-01T09:35:47.011Z,1017.29
2016-12-01T09:36:46.993Z,1017.34
2016-12-01T09:37:46.972Z,1017.3
2016-12-01T09:38:46.955Z,1017.28
2016-12-01T09:39:46.936Z,1017.25
2016-12-01T09:40:46.919Z,1017.27
2016-12-01T09:41:46.901Z,1017.29
2016-12-01T09:42:46.879Z,1017.28
2016-12-01T09:43:46.863Z,1017.27
2016-12-01T09:44:46.844Z,1017.27
2016-12-01T09:45:46.823Z,1017.29
2016-12-01T09:46:46.807Z,1017.38
2016-12-01T09:47:46.786Z,1017.33
2016-12-01T09:48:46.766Z,1017.38
2016-12-01T09:49:46.747Z,1017.33
2016-12-01T09:50:46.730Z,1017.3
2016-12-01T09:51:46.710Z,1017.32
2016-12-01T09:52:46.691Z,1017.34
2016-12-01T09:53:46.671Z,1017.35
2016-12-01T09:54:46.659Z,1017.38
2016-12-01T09:55:46.635Z,1017.31
2016-12-01T09:56:46.615Z,1017.35
2016-12-01T09:57:46.806Z,1017.31
2016-12-01T09:58:46.578Z,1017.32
2016-12-01T09:59:46.559Z,1017.34
2016-12-01T10:00:46.540Z,1017.38
2016-12-01T10:01:46.522Z,1017.45
2016-12-01T10:02:46.504Z,1017.42
2016-12-01T10:03:46.483Z,1017.41
2016-12-01T10:04:46.467Z,1017.36
2016-12-01T10:05:46.450Z,1017.48
2016-12-01T10:06:46.429Z,1017.34
2016-12-01T10:07:46.408Z,1017.41
2016-12-01T10:08:46.390Z,1017.38
2016-12-01T10:09:46.374Z,1017.38
2016-12-01T10:10:46.354Z,1017.41
2016-12-01T10:11:46.335Z,1017.42
2016-12-01T10:12:46.317Z,1017.44
2016-12-01T10:13:46.299Z,1017.39
2016-12-01T10:14:46.281Z,1017.44
2016-12-01T10:15:46.260Z,1017.42
2016-12-01T10:16:46.242Z,1017.4
2016-12-01T10:17:46.224Z,1017.41
2016-12-01T10:18:46.205Z,1017.44
2016-12-01T10:19:46.188Z,1017.5
2016-12-01T10:20:46.170Z,1017.47
2016-12-01T10:21:46.149Z,1017.45
2016-12-01T10:22:46.130Z,1017.44
2016-12-01T10:23:46.113Z,1017.45
2016-12-01T10:24:46.094Z,1017.41
2016-12-01T10:25:46.075Z,1017.36
2016-12-01T10:26:46.058Z,1017.38
2016-12-01T10:27:46.039Z,1017.38
2016-12-01T10:28:46.023Z,1017.38
2016-12-01T10:29:46.002Z,1017.33
2016-12-01T10:30:45.984Z,1017.45
2016-12-01T10:31:45.965Z,1017.3
2016-12-01T10:32:45.947Z,1017.31
2016-12-01T10:33:45.932Z,1017.3
2016-12-01T10:34:45.910Z,1017.25
2016-12-01T10:35:45.892Z,1017.26
2016-12-01T10:36:45.872Z,1017.23
2016-12-01T10:37:45.855Z,1017.22
2016-12-01T10:38:45.837Z,1017.19
2016-12-01T10:39:45.819Z,1017.19
2016-12-01T10:40:45.799Z,1017.13
2016-12-01T10:41:45.780Z,1017.08
2016-12-01T10:42:45.762Z,1017.04
2016-12-01T10:43:45.742Z,1017.05
2016-12-01T10:44:45.725Z,1017.04
2016-12-01T10:45:45.707Z,1017.04
2016-12-01T10:46:45.689Z,1016.98
2016-12-01T10:47:45.668Z,1016.99
2016-12-01T10:48:45.651Z,1016.95
2016-12-01T10:49:45.633Z,1016.92
2016-12-01T10:50:45.614Z,1016.9
2016-12-01T10:51:45.595Z,1016.89
2016-12-01T10:52:45.577Z,1016.86
2016-12-01T10:53:45.561Z,1016.91
2016-12-01T10:54:45.541Z,1016.84
2016-12-01T10:55:45.523Z,1016.88
2016-12-01T10:56:45.503Z,1016.85
2016-12-01T10:57:45.488Z,1016.9
2016-12-01T10:58:45.466Z,1016.88
2016-12-01T10:59:45.450Z,1016.83
2016-12-01T11:00:45.432Z,1016.84
2016-12-01T11:01:45.414Z,1016.85
2016-12-01T11:02:45.400Z,1016.81
2016-12-01T11:03:45.380Z,1016.77
2016-12-01T11:04:45.360Z,1016.76
2016-12-01T11:05:45.339Z,1016.86
2016-12-01T11:06:45.321Z,1016.81
2016-12-01T11:07:45.303Z,1016.8
2016-12-01T11:08:45.285Z,1016.84
2016-12-01T11:09:45.266Z,1016.82
2016-12-01T11:10:45.247Z,1016.79
2016-12-01T11:11:45.230Z,1016.76
2016-12-01T11:12:45.211Z,1016.76
2016-12-01T11:13:45.191Z,1016.75
2016-12-01T11:14:45.174Z,1016.65
2016-12-01T11:15:45.157Z,1016.68
2016-12-01T11:16:45.139Z,1016.61
2016-12-01T11:17:45.119Z,1016.64
2016-12-01T11:18:45.105Z,1016.6
2016-12-01T11:19:45.085Z,1016.61
2016-12-01T11:20:45.065Z,1016.6
2016-12-01T11:21:45.046Z,1016.59
2016-12-01T11:22:45.028Z,1016.57
2016-12-01T11:23:45.009Z,1016.63
2016-12-01T11:24:44.993Z,1016.59
2016-12-01T11:25:44.977Z,1016.56
2016-12-01T11:26:44.956Z,1016.54
2016-12-01T11:27:44.936Z,1016.57
2016-12-01T11:28:44.917Z,1016.53
2016-12-01T11:29:44.901Z,1016.54
2016-12-01T11:30:44.883Z,1016.51
2016-12-01T11:31:44.863Z,1016.46
2016-12-01T11:32:44.846Z,1016.49
2016-12-01T11:33:44.829Z,1016.4
2016-12-01T11:34:44.809Z,1016.42
2016-12-01T11:35:44.792Z,1016.42
2016-12-01T11:36:44.775Z,1016.38
2016-12-01T11:37:44.757Z,1016.36
2016-12-01T11:38:44.741Z,1016.32
2016-12-01T11:39:44.720Z,1016.32
2016-12-01T11:40:44.705Z,1016.32
2016-12-01T11:41:44.685Z,1016.29
2016-12-01T11:42:44.668Z,1016.28
2016-12-01T11:43:44.646Z,1016.28
2016-12-01T11:44:44.627Z,1016.31
2016-12-01T11:45:44.609Z,1016.29
2016-12-01T11:46:44.591Z,1016.36
2016-12-01T11:47:44.577Z,1016.3
2016-12-01T11:48:44.556Z,1016.33
2016-12-01T11:49:44.536Z,1016.3
2016-12-01T11:50:44.519Z,1016.25
2016-12-01T11:51:44.502Z,1016.23
2016-12-01T11:52:44.483Z,1016.21
2016-12-01T11:53:44.464Z,1016.26
2016-12-01T11:54:44.445Z,1016.28
2016-12-01T11:55:44.430Z,1016.29
2016-12-01T11:56:44.411Z,1016.28
2016-12-01T11:57:44.393Z,1016.26
2016-12-01T11:58:44.374Z,1016.27
2016-12-01T11:59:44.357Z,1016.28
2016-12-01T12:00:44.338Z,1016.33
2016-12-01T12:01:44.320Z,1016.27
2016-12-01T12:02:44.302Z,1016.27
2016-12-01T12:03:44.285Z,1016.24
2016-12-01T12:04:44.265Z,1016.24
2016-12-01T12:05:44.253Z,1016.29
2016-12-01T12:06:44.233Z,1016.27
2016-12-01T12:07:44.211Z,1016.32